Tiempo atmosférico en la estación meteorológica de Roquetas de Mar, Almería (7 m.)



Fecha
DESCASC
Temp. máxima en grados centígrados (hora)
DESCASC
Temp. mínima en grados centígrados (hora)
DESCASC
Temp. media en grados centígrados
DESCASC
Racha de viento máxima en m/sg (hora)
DESCASC
Velocidad máxima media en intervalos de 10 minutos(hora)
DESCASC
Precipitaciones diarias en mm
DESCASC
Precipitaciones de 00:00 a 06:00 en mm
DESCASC
Precipitaciones de 06:00 a 12:00 en mm
DESCASC
Precipitaciones de 12:00 a 18:00 en mm
DESCASC
Precipitaciones de 18:00 a 24:00 en mm
DESCASC
16-01-2020 17.1 (16:50) 4.7 (07:30) 10.9 5.28 (16:30) 3.33 (19:20) 0 0 0 0 0
15-01-2020 17.1 (15:30) 5.8 (05:00) 11.5 5.28 (09:30) 3.06 (12:10) 0 0 0 0 0
14-01-2020 16.6 (15:40) 4.5 (07:50) 10.6 11.39 (15:00) 7.78 (17:30) 0 0 0 0 0
13-01-2020 16 (15:30) 4.2 (07:30) 10.1 7.22 (21:30) 4.17 (21:40) 0 0 0 0 0
12-01-2020 16.6 (15:40) 4.6 (00:00) 10.6 6.39 (00:20) 3.89 (00:10) 0 0 0 0 0
11-01-2020 18.3 (15:00) 7.4 (00:00) 12.8 13.33 (16:10) 8.61 (15:40) 0 0 0 0 0
10-01-2020 16.8 (16:20) 6.6 (00:00) 11.7 10.28 (18:20) 6.39 (19:40) 0 0 0 0 0
09-01-2020 16.5 (13:00) 5.3 (00:00) 10.9 5 (16:40) 3.33 (16:00) 0 0 0 0 0
08-01-2020 15.8 (15:50) 5.5 (00:00) 10.7 8.06 (20:20) 5.28 (20:10) 0 0 0 0 0
07-01-2020 16.1 (17:20) 4 (00:00) 10.1 4.44 (15:00) 2.78 (14:30) 0 0 0 0 0
06-01-2020 16.7 (15:50) 5.2 (00:00) 11 5.28 (13:10) 3.33 (13:10) 0.2 0 0.2 0 0
05-01-2020 17.1 (14:20) 6.7 (00:00) 11.9 6.11 (11:40) 3.61 (11:40) 0 0 0 0 0
04-01-2020 17.3 (13:30) 7.4 (00:00) 12.3 10 (21:50) 6.67 (21:40) 0 0 0 0 0
03-01-2020 16.4 (15:10) 9.8 (00:00) 13.1 7.78 (14:40) 5.56 (18:10) 0 0 0 0 0
02-01-2020 15.2 (15:40) 7.2 (00:00) 11.2 6.11 (05:00) 3.61 (05:30) -- 0 -- 0 0
01-01-2020 16 (13:30) 6 (00:00) 11 4.17 (13:50) 3.06 (00:10) 0 0 0 0 0
31-12-2019 17.3 (15:10) 6.4 (00:00) 11.8 6.94 (12:10) 4.17 (15:50) 0 0 0 0 0
30-12-2019 -- (--) -- (--) -- -- (--) -- (--) -- 0 -- 0 0
29-12-2019 17.7 (14:00) 5.8 (00:00) 11.8 11.11 (17:20) 6.39 (17:00) 0 0 0 0 0
28-12-2019 17.5 (14:00) 7.4 (00:00) 12.5 9.72 (18:50) 6.39 (22:00) 0.2 0.2 0 0 0
27-12-2019 18.4 (13:30) 8.7 (00:00) 13.5 13.61 (11:30) 8.61 (11:10) 0 0 0 0 0
26-12-2019 18 (15:20) 6.2 (00:00) 12.1 5 (16:00) 3.33 (16:10) 0 0 0 0 0
25-12-2019 18.8 (17:10) 7.1 (00:00) 12.9 4.72 (14:20) 3.61 (03:10) 0 0 0 0 0
24-12-2019 22.2 (13:50) 7.9 (00:00) 15.1 7.78 (13:30) 4.72 (13:30) 0 0 0 0 0
23-12-2019 21 (15:20) 8.2 (00:00) 14.6 8.33 (14:00) 5.83 (14:10) 0 0 0 0 0
22-12-2019 21.2 (12:40) 11.3 (00:00) 16.3 24.72 (03:30) 16.11 (02:50) 0 0 0 0 0
21-12-2019 18.5 (12:40) 16.1 (00:00) 17.3 28.89 (21:10) 16.67 (11:10) 0 0 0 0 0
20-12-2019 -- (--) -- (--) -- -- (--) -- (--) -- 2.8 0 -- --

Gráficas

Temp. máximas Temp. mínimas Temp. medias Precipitaciones Rachas de viento máximas Velocidades máximas media en intervalos de 10 minutos

Datos horarios

Fecha y hora oficial Temperatura (ºC) Velocidad del viento (km/h) Dirección del viento Racha (km/h) Dirección de racha Precipitación (mm) Presión (hPa) Tendencia (hPa) Humedad (%)
2020-01-18 23:00:00 14.3 14 Oeste 44 Oeste 0 1022.8 -3 82
2020-01-18 22:00:00 14.3 21 Oeste 37 Oeste 0 1023.9 -2.6 82
2020-01-18 21:00:00 14.4 22 Oeste 36 Oeste 0.2 1024.9 -2.3 82
2020-01-18 20:00:00 13.9 18 Oeste 30 Oeste 0 1025.8 -1.9 82
2020-01-18 19:00:00 14.1 8 Oeste 22 Oeste 0 1026.5 -1.8 83
2020-01-18 18:00:00 14.1 14 Oeste 24 Oeste 0 1027.2 -1.8 86
2020-01-18 17:00:00 15.2 9 Oeste 13 Oeste 0 1027.7 -2.6 88
2020-01-18 16:00:00 14.7 7 Sudoeste 10 Sudoeste 0 1028.3 -3.2 88
2020-01-18 15:00:00 14.6 6 Sudoeste 9 Sur 0 1029 -2.8 88
2020-01-18 14:00:00 14.6 6 Sur 12 Sudeste 1.6 1030.3 -0.7 87
2020-01-18 13:00:00 14.7 8 Sudeste 13 Sudeste 0.2 1031.5 0.9 87
2020-01-18 12:00:00 14.8 6 Sudeste 9 Sudeste 0 1031.8 1.6 89
2020-01-18 11:00:00 13.4 4 Sur 6 Sudeste 0 1031 0.9 91
2020-01-18 10:00:00 9.9 7 Norte 9 Norte 0 1030.6 0.3 91
2020-01-18 09:00:00 7.9 6 Nordeste 9 Nordeste 0 1030.2 -0.2 91
2020-01-18 08:00:00 8.3 7 Norte 10 Norte 0 1030.1 -0.7 90
2020-01-18 07:00:00 8.2 9 Norte 13 Norte 0 1030.3 -0.9 90
2020-01-18 06:00:00 8.3 10 Norte 13 Norte 0 1030.4 -0.7 90
2020-01-18 05:00:00 8.9 9 Norte 14 Norte 0 1030.8 -0.5 90
2020-01-18 04:00:00 8.4 8 Norte 10 Norte 0 1031.2 -0.4 89
2020-01-18 03:00:00 9.6 5 Nordeste 10 Este 0 1031.1 -0.5 89
2020-01-18 02:00:00 8.6 8 Nordeste 11 Nordeste 0 1031.3 0 88
2020-01-18 01:00:00 8.9 4 Este 8 Norte 0 1031.6 0.4 87
2020-01-18 00:00:00 8.1 7 Norte 10 Norte 0 1031.6 0.7 86
2020-01-17 23:00:00 8.3 8 Norte 10 Norte 0 1031.3 0.8 85
2020-01-17 22:00:00 8.8 7 Nordeste 9 Nordeste 0 1031.2 1.5 83
2020-01-17 21:00:00 9.7 6 Norte 9 Norte 0 1030.9 1.4 80
2020-01-17 20:00:00 11.5 4 Noroeste 8 Norte 0 1030.5 1.3 76
2020-01-17 19:00:00 13.9 6 Noroeste 8 Oeste 0 1029.7 0.6 69
2020-01-17 18:00:00 15.9 4 Sudoeste 7 Sudoeste 0 1029.5 -0.1 66
2020-01-17 17:00:00 16.6 4 Sur 10 Sudeste 0 1029.2 -0.9 59
2020-01-17 16:00:00 17.5 5 Sudeste 12 Sur 0 1029.1 -2.1 58
2020-01-17 15:00:00 16.6 8 Sur 15 Sudeste 0 1029.6 -2.1 62
2020-01-17 14:00:00 16.8 6 Sudeste 13 Sudeste 0 1030.1 -- 60
2020-01-17 13:00:00 16.6 5 Sudeste 15 Este 0 1031.2 0.7 63
2020-01-17 12:00:00 15.2 5 Sudeste -- -- -- 1031.7 1.3 82
2020-01-17 11:00:00 -- -- -- -- -- -- -- -- --
2020-01-17 10:00:00 8.8 5 Nordeste 9 Norte 0 1030.5 1.1 92
2020-01-17 09:00:00 6 6 Nordeste 11 Nordeste 0 1030.4 1.3 91
2020-01-17 08:00:00 6.4 8 Norte 10 Norte 0 1030.1 0.8 91
2020-01-17 07:00:00 6.3 9 Norte 12 Norte 0 1029.4 -0.2 90
2020-01-17 06:00:00 6.8 5 Noroeste 14 Norte 0 1029.1 -0.2 90
2020-01-17 05:00:00 6.8 10 Noroeste 12 Noroeste 0 1029.3 0 90
2020-01-17 04:00:00 7.3 8 Norte 12 Noroeste 0 1029.6 0 90
2020-01-17 03:00:00 8.1 9 Noroeste 14 Noroeste 0 1029.3 -0.2 89
2020-01-17 02:00:00 7.8 6 Norte 12 Noroeste 0 1029.3 -0.1 89
2020-01-17 01:00:00 6.9 7 Norte 10 Noroeste 0 1029.6 0.6 88
2020-01-17 00:00:00 8.1 8 Norte 9 Norte 0 1029.5 0.9 87
2020-01-16 23:00:00 7.7 7 Norte 10 Norte 0 1029.4 1 86
2020-01-16 22:00:00 8.6 6 Norte 12 Oeste 0 1029 1.1 84
2020-01-16 21:00:00 11.2 8 Oeste 13 Oeste 0 1028.6 1.2 82
2020-01-16 20:00:00 12.2 9 Oeste 17 Oeste 0 1028.4 0.8 79
2020-01-16 19:00:00 14.4 9 Oeste 16 Oeste 0 1027.9 0.6 75
2020-01-16 18:00:00 16.2 9 Sudoeste 15 Sudoeste 0 1027.4 -0.3 69
2020-01-16 17:00:00 17 9 Sudoeste 19 Oeste 0 1027.6 -0.8 67
2020-01-16 16:00:00 16.6 8 Sudoeste 15 Sudoeste 0 1027.3 -1.7 69
2020-01-16 15:00:00 16.2 9 Sudoeste 15 Sudoeste 0 1027.7 -1.9 73
2020-01-16 14:00:00 16 8 Sudoeste 13 Sudoeste 0 1028.4 -0.9 74
2020-01-16 13:00:00 15.8 6 Sur 10 Sudeste 0 1029 0.3 78
2020-01-16 12:00:00 14.7 4 Sudeste 9 Sudeste 0 1029.6 1.5 89
2020-01-16 11:00:00 12 6 Norte 10 Norte 0 1029.3 1.5 92
2020-01-16 10:00:00 8 6 Norte 11 Norte 0 1028.7 1.2 92
2020-01-16 09:00:00 5 7 Nordeste 10 Nordeste 0 1028.1 0.7 91
2020-01-16 08:00:00 5.2 8 Nordeste 10 Norte 0 1027.8 0.2 91
2020-01-16 07:00:00 5.1 7 Nordeste 9 Norte 0 1027.5 -0.4 91
2020-01-16 06:00:00 5.5 7 Norte 12 Norte 0 1027.4 -0.3 90
2020-01-16 05:00:00 5.4 9 Norte 12 Norte 0 1027.6 -0.2 89
2020-01-16 04:00:00 5.8 8 Norte 10 Norte 0 1027.9 -0.2 89
2020-01-16 03:00:00 5.5 8 Norte 9 Norte 0 1027.7 -0.5 89
2020-01-16 02:00:00 6.4 7 Norte 9 Norte 0 1027.8 -0.4 88
2020-01-16 01:00:00 6.4 9 Norte 10 Norte 0 1028.1 -0.1 88
2020-01-16 00:00:00 7.1 7 Norte 11 Norte 0 1028.2 -0.1 87
2020-01-15 23:00:00 7.5 7 Norte 11 Norte 0 1028.2 0.2 85
2020-01-15 22:00:00 8.3 8 Norte 10 Norte 0 1028.2 0.5 83
2020-01-15 21:00:00 8.9 7 Norte 8 Norte 0 1028.3 1.1 79
2020-01-15 20:00:00 10.7 6 Noroeste 7 Norte 0 1028 1.4 72
2020-01-15 19:00:00 14.1 4 Oeste 10 Oeste 0 1027.7 1.2 67
2020-01-15 18:00:00 16.6 7 Sudoeste 13 Sudoeste 0 1027.2 0.7 62
2020-01-15 17:00:00 16.5 8 Sudoeste 14 Sudoeste 0 1026.6 -0.4 64
2020-01-15 16:00:00 16.8 8 Sudeste 13 Sudeste 0 1026.5 -0.8 65
2020-01-15 15:00:00 16.9 5 Sur 12 Sur 0 1026.5 -1.1 62
2020-01-15 14:00:00 16.4 6 Sudeste 17 Sudeste 0 1027 0 60
2020-01-15 13:00:00 16.3 10 Este 17 Este 0 1027.3 1.2 53
2020-01-15 12:00:00 15 9 Este 16 Este 0 1027.6 2.2 61
2020-01-15 11:00:00 11.7 8 Nordeste 13 Nordeste 0 1027 2.3 87
2020-01-15 10:00:00 8.6 10 Nordeste 19 Nordeste 0 1026.1 2.4 89
2020-01-15 09:00:00 6.4 11 Nordeste 12 Nordeste 0 1025.4 1.9 88
2020-01-15 08:00:00 6.6 8 Norte 11 Nordeste 0 1024.7 1.5 88
2020-01-15 07:00:00 6.4 8 Nordeste 12 Nordeste 0 1023.7 0.3 88
2020-01-15 06:00:00 6.4 7 Nordeste 10 Nordeste 0 1023.5 0.1 87
2020-01-15 05:00:00 5.8 8 Nordeste 10 Nordeste 0 1023.2 -0.4 86
2020-01-15 04:00:00 6.8 5 Nordeste 13 Norte 0 1023.4 -0.4 85
2020-01-15 03:00:00 7.1 2 Norte 9 Noroeste 0 1023.4 -0.3 84
2020-01-15 02:00:00 7.6 7 Noroeste 10 Norte 0 1023.6 0.1 83
2020-01-15 01:00:00 8.7 7 Noroeste 9 Noroeste 0 1023.8 0.4 81
2020-01-15 00:00:00 10.1 7 Norte 17 Noroeste 0 1023.7 0.6 79
2020-01-14 23:00:00 13.8 10 Oeste 30 Oeste 0 1023.5 0.5 76
2020-01-14 22:00:00 14.4 16 Oeste 33 Oeste 0 1023.4 0.9 75
2020-01-14 21:00:00 14.4 17 Oeste 35 Sudoeste 0 1023.1 0.9 72
2020-01-14 20:00:00 14.7 17 Oeste 34 Oeste 0 1023 1 70
2020-01-14 19:00:00 14.5 24 Oeste 39 Oeste 0 1022.5 0.6 69
2020-01-14 18:00:00 15 26 Oeste 40 Oeste 0 1022.2 0 67
2020-01-14 17:00:00 15.8 20 Oeste 36 Oeste 0 1022 -1 69
2020-01-14 16:00:00 16 19 Oeste 40 Oeste 0 1021.9 -2 67
2020-01-14 15:00:00 16.4 23 Oeste 41 Oeste 0 1022.2 -2.3 61
2020-01-14 14:00:00 16.1 18 Oeste 32 Oeste 0 1023 -1.5 61
2020-01-14 13:00:00 15.2 10 Sudoeste 19 Oeste 0 1023.9 -0.1 66
2020-01-14 12:00:00 14.1 6 Sur 11 Sudoeste 0 1024.5 1 77
2020-01-14 11:00:00 11 4 Nordeste 7 Nordeste 0 1024.5 1.2 90
2020-01-14 10:00:00 8.3 6 Norte 12 Este 0 1024 1.4 91
2020-01-14 09:00:00 5.5 8 Norte 10 Norte 0 1023.5 1.2 90
2020-01-14 08:00:00 5.2 8 Norte 12 Nordeste 0 1023.3 1.1 90
2020-01-14 07:00:00 5.4 7 Nordeste 11 Nordeste 0 1022.6 0.3 90
2020-01-14 06:00:00 5.5 8 Nordeste 10 Nordeste 0 1022.3 -0.5 90
2020-01-14 05:00:00 5.6 8 Nordeste 12 Norte 0 1022.2 -1 89
2020-01-14 04:00:00 5.7 9 Norte 11 Noroeste 0 1022.3 -1.4 88
2020-01-14 03:00:00 5.7 8 Norte 10 Norte 0 1022.8 -1.2 87
2020-01-14 02:00:00 6 8 Noroeste 10 Noroeste 0 1023.2 -0.9 86
2020-01-14 01:00:00 7 9 Norte 14 Noroeste 0 1023.7 -0.9 84
2020-01-14 00:00:00 8.7 10 Noroeste 15 Noroeste 0 1024 -1 82
2020-01-13 23:00:00 10 8 Noroeste 26 Oeste 0 1024.1 -0.8 77
2020-01-13 22:00:00 12.2 14 Oeste 26 Oeste 0 1024.6 -0.4 75
2020-01-13 21:00:00 12.3 12 Oeste 26 Oeste 0 1025 0.2 75
2020-01-13 20:00:00 12.7 12 Oeste 21 Oeste 0 1024.9 -0.1 74
2020-01-13 19:00:00 12.8 12 Oeste 21 Oeste 0 1025 0 69
2020-01-13 18:00:00 14.5 8 Oeste 20 Oeste 0 1024.8 -0.8 63
2020-01-13 17:00:00 15.7 10 Oeste 21 Oeste 0 1025 -1.6 60
2020-01-13 16:00:00 15.9 9 Oeste 19 Sudoeste 0 1025 -2.7 60
2020-01-13 15:00:00 15.4 9 Oeste 17 Oeste 0 1025.6 -2.9 67
2020-01-13 14:00:00 15 6 Sudoeste 12 Sur 0 1026.6 -1.9 68
2020-01-13 13:00:00 14.5 7 Sudoeste 12 Sudoeste 0 1027.7 -0.5 70
2020-01-13 12:00:00 13.7 5 Sur 10 Sur 0 1028.5 0.3 84
2020-01-13 11:00:00 11.8 2 Norte 9 Norte 0 1028.5 0.7 91
2020-01-13 10:00:00 7.5 7 Norte 9 Norte 0 1028.2 0.7 90
2020-01-13 09:00:00 4.9 9 Norte 10 Norte 0 1028.2 0.6 90
2020-01-13 08:00:00 4.9 8 Norte 12 Norte 0 1027.8 -0.2 90
2020-01-13 07:00:00 4.6 8 Norte 10 Norte 0 1027.5 -1 89
2020-01-13 06:00:00 5 9 Norte 12 Norte 0 1027.6 -1.1 89
2020-01-13 05:00:00 5.2 9 Norte 11 Norte 0 1028 -1.1 89
2020-01-13 04:00:00 5.1 8 Norte 10 Norte 0 1028.5 -1.4 88
2020-01-13 03:00:00 5.4 9 Norte 10 Norte 0 1028.7 -1.4 88
2020-01-13 02:00:00 5.7 8 Norte 11 Norte 0 1029.1 -0.7 87
2020-01-13 01:00:00 6.7 7 Nordeste 10 Nordeste 0 1029.9 0.2 87
2020-01-13 00:00:00 7.2 6 Nordeste 11 Nordeste 0 1030.1 0.4 86
2020-01-12 23:00:00 8.2 7 Norte 9 Norte 0 1029.8 0.5 84
2020-01-12 22:00:00 9.3 7 Norte 10 Oeste 0 1029.7 1 82
2020-01-12 21:00:00 9.7 6 Noroeste 9 Noroeste 0 1029.7 1 79
2020-01-12 20:00:00 10.8 7 Noroeste 12 Oeste 0 1029.3 0.7 73
2020-01-12 19:00:00 13.1 10 Oeste 18 Oeste 0 1028.7 0 69
2020-01-12 18:00:00 15.4 12 Oeste 20 Oeste 0 1028.7 0 63
2020-01-12 17:00:00 16.4 11 Sudoeste 22 Sudoeste 0 1028.6 -0.7 63
2020-01-12 16:00:00 16.4 12 Oeste 23 Sudoeste 0 1028.7 -1.7 62
2020-01-12 15:00:00 15.8 12 Sudoeste 22 Sudoeste 0 1028.7 -2.6 65
2020-01-12 14:00:00 15.8 13 Sudoeste 21 Oeste 0 1029.3 -1.9 64
2020-01-12 13:00:00 15.3 9 Sudoeste 15 Sudoeste 0 1030.4 -0.4 64
2020-01-12 12:00:00 14.5 7 Sudoeste 12 Sudoeste 0 1031.3 0.7 60
2020-01-12 11:00:00 12 4 Norte 6 Norte 0 1031.2 0.8 81
2020-01-12 10:00:00 7.8 5 Norte 11 Norte 0 1030.8 0.5 88
2020-01-12 09:00:00 4.7 10 Norte 12 Norte 0 1030.6 0.3 86
2020-01-12 08:00:00 4.8 9 Norte 11 Norte 0 1030.4 -0.2 85
2020-01-12 07:00:00 5.1 8 Norte 11 Norte 0 1030.3 -0.6 84
2020-01-12 06:00:00 5.5 10 Norte 13 Norte 0 1030.3 -0.4 83
2020-01-12 05:00:00 6.1 8 Norte 15 Noroeste 0 1030.6 -0.1 82
2020-01-12 04:00:00 6.1 11 Norte 14 Norte 0 1030.9 -0.1 81
2020-01-12 03:00:00 6.6 8 Norte 11 Norte 0 1030.7 -0.5 78
2020-01-12 02:00:00 7.8 9 Norte 14 Este 0 1030.7 -0.2 75
2020-01-12 01:00:00 11.1 8 Nordeste 23 Este 0 1031 0.4 72
2020-01-12 00:00:00 12.7 15 Este 25 Este 0 1031.2 0.8 72
2020-01-11 23:00:00 12.8 15 Este 32 Este 0 1030.9 1 71
2020-01-11 22:00:00 13 19 Este 30 Este 0 1030.6 1.5 71
2020-01-11 21:00:00 12.4 14 Este 27 Nordeste 0 1030.4 2.1 66
2020-01-11 20:00:00 13.5 17 Este 33 Este 0 1029.9 1.9 60
2020-01-11 19:00:00 14.5 20 Este 39 Este 0 1029.1 1.2 56
2020-01-11 18:00:00 15.7 27 Este 48 Sudeste 0 1028.3 0.3 55
2020-01-11 17:00:00 16.7 29 Este 48 Este 0 1028 -0.7 47
2020-01-11 16:00:00 17.1 30 Este 45 Este 0 1027.9 -1.8 46
2020-01-11 15:00:00 18.3 23 Este 41 Este 0 1028 -2 46
2020-01-11 14:00:00 17.9 23 Este 44 Este 0 1028.7 -0.7 43
2020-01-11 13:00:00 17.9 24 Este 40 Nordeste 0 1029.7 1 43
2020-01-11 12:00:00 17.1 22 Este 37 Este 0 1030 2.2 44
2020-01-11 11:00:00 16.3 18 Nordeste 30 Nordeste 0 1029.4 1.9 45
2020-01-11 10:00:00 12.3 8 Norte 13 Norte 0 1028.7 1.6 67
2020-01-11 09:00:00 11.8 4 Noroeste 15 Nordeste 0 1027.8 1.1 64
2020-01-11 08:00:00 12.4 6 Norte 21 Nordeste 0 1027.5 0.7 61
2020-01-11 07:00:00 12.4 14 Nordeste 31 Este 0 1027.1 0.1 62
2020-01-11 06:00:00 10.2 11 Este 17 Nordeste 0 1026.7 -0.2 86
2020-01-11 05:00:00 10.2 6 Norte 11 Norte 0 1026.8 0 87
2020-01-11 04:00:00 9.8 6 Noroeste 13 Norte 0 1027 -0.2 87
2020-01-11 03:00:00 9.7 6 Norte 12 Norte 0 1026.9 -0.1 87
2020-01-11 02:00:00 8.1 9 Norte 12 Nordeste 0 1026.8 0.1 86
2020-01-11 01:00:00 7.9 8 Norte 13 Norte 0 1027.2 1 84
2020-01-11 00:00:00 8.3 10 Norte 13 Norte 0 1027 1.4 82
2020-01-10 23:00:00 10.1 8 Norte 13 Nordeste 0 1026.7 1.5 80
2020-01-10 22:00:00 11.7 8 Nordeste 21 Este 0 1026.2 2 77
2020-01-10 21:00:00 14.1 16 Este 36 Este 0 1025.6 2.1 74
2020-01-10 20:00:00 14.7 21 Este 36 Este 0 1025.2 2.3 69
2020-01-10 19:00:00 14.9 21 Sudeste 37 Este 0 1024.2 1.7 66
2020-01-10 18:00:00 15.4 15 Este 30 Este 0 1023.5 1.4 73
2020-01-10 17:00:00 16.3 11 Sudeste 17 Sudeste 0 1022.9 0.3 67
2020-01-10 16:00:00 16.6 5 Sur 12 Sudoeste 0 1022.5 -1 66
2020-01-10 15:00:00 16.3 7 Sur 13 Sur 0 1022.1 -2.3 67
2020-01-10 14:00:00 16.2 6 Sur 12 Sudoeste 0 1022.6 -2 66
2020-01-10 13:00:00 16.1 6 Sur 11 Sudoeste 0 1023.5 -0.6 64
2020-01-10 12:00:00 15.1 4 Sudoeste 10 Sudoeste 0 1024.4 0.3 75
2020-01-10 11:00:00 12.4 3 Norte 6 Norte 0 1024.6 0.1 88
2020-01-10 10:00:00 9 4 Noroeste 10 Norte 0 1024.1 -0.4 89
2020-01-10 09:00:00 6.7 9 Norte 11 Norte 0 1024.1 0 88
2020-01-10 08:00:00 7.4 8 Norte 10 Noroeste 0 1024.5 0.3 87
2020-01-10 07:00:00 7.9 6 Norte 9 Norte 0 1024.5 0 86
2020-01-10 06:00:00 7.3 7 Norte 10 Noroeste 0 1024.1 -0.5 84
2020-01-10 05:00:00 8.6 6 Noroeste 13 Oeste 0 1024.2 -1 83
2020-01-10 04:00:00 10.8 10 Oeste 14 Oeste 0 1024.5 -1.1 84
2020-01-10 03:00:00 12.3 11 Oeste 19 Oeste 0 1024.6 -1.4 85
2020-01-10 02:00:00 10.8 9 Oeste 12 Oeste 0 1025.2 -1.3 86
2020-01-10 01:00:00 9.6 10 Noroeste 15 Oeste 0 1025.6 -1.4 84
2020-01-10 00:00:00 9.6 12 Noroeste 13 Oeste 0 1026 -1.1 83
2020-01-09 23:00:00 10.7 8 Noroeste 10 Oeste 0 1026.5 -0.2 82
2020-01-09 22:00:00 11.1 6 Noroeste 9 Noroeste 0 1027 0.6 81
2020-01-09 21:00:00 11.2 10 Noroeste 12 Noroeste 0 1027.1 0.7 78
2020-01-09 20:00:00 12 9 Oeste 14 Oeste 0 1026.7 0.5 74
2020-01-09 19:00:00 13.8 7 Oeste 13 Oeste 0 1026.4 0.2 71
2020-01-09 18:00:00 14.4 9 Sudoeste 15 Sur 0 1026.4 -0.2 68
2020-01-09 17:00:00 15.6 11 Sur 18 Sudoeste 0 1026.2 -1 63
2020-01-09 16:00:00 15.7 12 Sudoeste 17 Sudoeste 0 1026.2 -1.9 62
2020-01-09 15:00:00 16.2 8 Sur 13 Sur 0 1026.6 -2.6 59
2020-01-09 14:00:00 16.1 9 Sudeste 15 Sudeste 0 1027.2 -1.8 57
2020-01-09 13:00:00 16.4 6 Sudeste 12 Este 0 1028.1 -0.5 57
2020-01-09 12:00:00 14.4 3 Sudeste 8 Este 0 1029.2 1 68
2020-01-09 11:00:00 12 6 Norte 11 Nordeste 0 1029 0.8 88
2020-01-09 10:00:00 8.8 8 Norte 12 Norte 0 1028.6 0.4 90
2020-01-09 09:00:00 6.3 8 Norte 12 Norte 0 1028.2 0 90
2020-01-09 08:00:00 6.1 8 Norte 14 Norte 0 1028.2 -0.2 89
2020-01-09 07:00:00 5.9 11 Norte 13 Norte 0 1028.2 -0.7 89
2020-01-09 06:00:00 5.4 9 Norte 11 Norte 0 1028.2 -0.8 89
2020-01-09 05:00:00 6.7 7 Noroeste 12 Norte 0 1028.4 -0.8 88
2020-01-09 04:00:00 6.8 8 Norte 11 Norte 0 1028.9 -0.6 88
2020-01-09 03:00:00 6.9 8 Norte 12 Norte 0 1029 -0.8 87
2020-01-09 02:00:00 8.4 8 Norte 12 Nordeste 0 1029.2 -0.5 87
2020-01-09 01:00:00 8.6 7 Norte 12 Norte 0 1029.5 0.1 86
2020-01-09 00:00:00 10.8 9 Nordeste 26 Este 0 1029.8 0.6 85
2020-01-08 23:00:00 9.3 8 Norte 13 Norte 0 1029.7 0.8 84
2020-01-08 22:00:00 10.9 7 Nordeste 20 Este 0 1029.4 0.8 81
2020-01-08 21:00:00 13 13 Este 29 Sudeste 0 1029.2 0.7 79
2020-01-08 20:00:00 13.6 15 Este 26 Este 0 1028.9 0.9 79
2020-01-08 19:00:00 13.3 10 Este 17 Este 0 1028.6 0.4 77
2020-01-08 18:00:00 14.7 9 Sudeste 15 Sudeste 0 1028.5 0.5 70
2020-01-08 17:00:00 15.6 6 Sudeste 13 Sudeste 0 1028 -0.2 67
2020-01-08 16:00:00 15.7 7 Sur 15 Sudoeste 0 1028.2 -0.7 66
2020-01-08 15:00:00 15.3 9 Sudoeste 14 Oeste 0 1028 -1.4 69
2020-01-08 14:00:00 15.4 9 Sudoeste 18 Oeste 0 1028.2 -1.5 68
2020-01-08 13:00:00 14.6 8 Oeste 15 Oeste 0 1028.9 -0.2 78
2020-01-08 12:00:00 13 6 Sudoeste 12 Oeste 0 1029.4 0.8 90
2020-01-08 11:00:00 12 6 Norte 11 Noroeste 0 1029.7 1.3 92
2020-01-08 10:00:00 10.8 6 Norte 10 Noroeste 0 1029.1 1.3 92
2020-01-08 09:00:00 9.2 7 Noroeste 10 Noroeste 0 1028.6 0.7 92
2020-01-08 08:00:00 8.7 6 Norte 8 Norte 0 1028.4 0.3 92
2020-01-08 07:00:00 8.7 6 Norte 9 Noroeste 0 1027.8 -0.5 91
2020-01-08 06:00:00 7.8 6 Norte 8 Norte 0 1027.9 -0.7 91
2020-01-08 05:00:00 5.8 6 Norte 9 Norte 0 1028.1 -0.9 91
2020-01-08 04:00:00 6.1 6 Norte 9 Norte 0 1028.3 -1.4 90
2020-01-08 03:00:00 6 7 Norte 11 Noroeste 0 1028.6 -1.2 89
2020-01-08 02:00:00 5.8 9 Norte 10 Norte 0 1029 -1.1 89
2020-01-08 01:00:00 6.4 8 Norte 10 Norte 0 1029.7 -0.3 88
2020-01-08 00:00:00 6.7 7 Noroeste 9 Noroeste 0 1029.8 -0.4 87
2020-01-07 23:00:00 7.4 8 Noroeste 10 Noroeste 0 1030.1 0 86
2020-01-07 22:00:00 7.7 9 Norte 11 Noroeste 0 1030 0.2 83
2020-01-07 21:00:00 8.2 8 Norte 10 Norte 0 1030.2 0.9 80
2020-01-07 20:00:00 10.4 8 Noroeste 9 Noroeste 0 1030.1 0.5 75
2020-01-07 19:00:00 12.9 4 Oeste 13 Oeste 0 1029.8 -0.1 70
2020-01-07 18:00:00 15.3 9 Oeste 15 Oeste 0 1029.3 -0.6 65
2020-01-07 17:00:00 15.8 8 Sudoeste 14 Sudoeste 0 1029.6 -1 65
2020-01-07 16:00:00 15.4 9 Sudoeste 14 Sudoeste 0 1029.9 -1.4 65
2020-01-07 15:00:00 15.4 9 Sudoeste 16 Sudoeste 0 1029.9 -2.2 68
2020-01-07 14:00:00 14.9 8 Sudoeste 13 Sur 0 1030.6 -1.7 71
2020-01-07 13:00:00 14.7 6 Sur 11 Sudeste 0 1031.3 -0.1 72
2020-01-07 12:00:00 13.7 5 Sudoeste 8 Sur 0 1032.1 1.1 85
2020-01-07 11:00:00 11 5 Norte 9 Norte 0 1032.3 1.7 91
2020-01-07 10:00:00 7.4 5 Norte 9 Norte 0 1031.4 1 91
2020-01-07 09:00:00 4.2 8 Norte 10 Norte 0 1031 0.9 90
2020-01-07 08:00:00 4.6 8 Norte 10 Norte 0 1030.6 0.6 90
2020-01-07 07:00:00 5.1 7 Nordeste 12 Norte 0 1030.4 0.2 90
2020-01-07 06:00:00 5.1 6 Norte 10 Norte 0 1030.1 0 89
2020-01-07 05:00:00 5 8 Norte 10 Norte 0 1030 -0.2 89
2020-01-07 04:00:00 5.5 8 Norte 10 Norte 0 1030.2 -0.3 88
2020-01-07 03:00:00 5.9 8 Norte 11 Norte 0 1030.1 -0.5 88
2020-01-07 02:00:00 6.5 8 Norte 10 Norte 0 1030.2 -0.2 87
2020-01-07 01:00:00 6.5 8 Norte 12 Norte 0 1030.5 0.5 86
2020-01-07 00:00:00 7.2 8 Norte 12 Norte 0 1030.6 1 85
2020-01-06 23:00:00 7.7 9 Norte 14 Norte 0 1030.4 1.1 84
2020-01-06 22:00:00 8 8 Norte 13 Norte 0 1030 1.3 82
2020-01-06 21:00:00 8.7 9 Norte 11 Norte 0 1029.6 1.3 78
2020-01-06 20:00:00 10.3 6 Nordeste 7 Norte 0 1029.3 1.3 70
2020-01-06 19:00:00 12.1 3 Nordeste 9 Sudeste 0 1028.7 0.6 65
2020-01-06 18:00:00 15.2 5 Sudeste 10 Este 0 1028.3 -0.2 60
2020-01-06 17:00:00 15.9 6 Sudeste 12 Sudeste 0 1028 -1.2 56
2020-01-06 16:00:00 16.4 4 Sudeste 13 Sudeste 0 1028.1 -1.6 52
2020-01-06 15:00:00 16.3 5 Sudeste 18 Sudeste 0 1028.5 -1.6 57
2020-01-06 14:00:00 16.4 8 Este 19 Este 0 1029.2 -0.8 57
2020-01-06 13:00:00 15.7 11 Este 18 Sudeste 0 1029.7 0.2 60
2020-01-06 12:00:00 14.3 7 Norte 14 Norte 0 1030.1 1.1 75
2020-01-06 11:00:00 11.6 7 Norte 11 Norte 0 1030 1.4 90
2020-01-06 10:00:00 7.8 8 Norte 13 Norte 0.2 1029.5 1.3 91